sensor_id;sensor_type;location;lat;lon;timestamp;temperature;humidity
13711;DHT22;6927;51.256;9.410;2023-03-23T00:01:09;12.50;1.00
13711;DHT22;6927;51.256;9.410;2023-03-23T00:04:03;12.50;99.90
13711;DHT22;6927;51.256;9.410;2023-03-23T00:06:28;12.50;1.00
13711;DHT22;6927;51.256;9.410;2023-03-23T00:09:00;12.50;99.90
13711;DHT22;6927;51.256;9.410;2023-03-23T00:11:31;12.50;1.00
13711;DHT22;6927;51.256;9.410;2023-03-23T00:13:58;12.40;99.90
13711;DHT22;6927;51.256;9.410;2023-03-23T00:16:30;12.50;99.90
13711;DHT22;6927;51.256;9.410;2023-03-23T00:19:05;12.50;1.00
13711;DHT22;6927;51.256;9.410;2023-03-23T00:21:36;12.50;1.00
13711;DHT22;6927;51.256;9.410;2023-03-23T00:24:07;12.50;1.00
13711;DHT22;6927;51.256;9.410;2023-03-23T00:26:35;12.50;99.90
13711;DHT22;6927;51.256;9.410;2023-03-23T00:29:04;12.40;1.00
13711;DHT22;6927;51.256;9.410;2023-03-23T00:31:30;12.40;99.90
13711;DHT22;6927;51.256;9.410;2023-03-23T00:33:59;12.40;1.00
13711;DHT22;6927;51.256;9.410;2023-03-23T00:36:27;12.40;1.00
13711;DHT22;6927;51.256;9.410;2023-03-23T00:38:54;12.40;1.00
13711;DHT22;6927;51.256;9.410;2023-03-23T00:41:23;12.30;99.90
13711;DHT22;6927;51.256;9.410;2023-03-23T00:43:55;12.20;99.90
13711;DHT22;6927;51.256;9.410;2023-03-23T00:46:22;12.10;1.00
13711;DHT22;6927;51.256;9.410;2023-03-23T00:48:47;12.00;5.00
13711;DHT22;6927;51.256;9.410;2023-03-23T00:51:13;11.90;1.00
13711;DHT22;6927;51.256;9.410;2023-03-23T00:53:39;11.80;1.00
13711;DHT22;6927;51.256;9.410;2023-03-23T00:56:06;11.80;1.00
13711;DHT22;6927;51.256;9.410;2023-03-23T00:58:32;11.70;49.80
13711;DHT22;6927;51.256;9.410;2023-03-23T01:00:58;11.70;99.90
13711;DHT22;6927;51.256;9.410;2023-03-23T01:03:24;11.60;99.90
13711;DHT22;6927;51.256;9.410;2023-03-23T01:05:52;11.70;99.90
13711;DHT22;6927;51.256;9.410;2023-03-23T01:08:18;11.60;1.00
13711;DHT22;6927;51.256;9.410;2023-03-23T01:10:45;11.60;1.00
13711;DHT22;6927;51.256;9.410;2023-03-23T01:13:11;11.70;1.00
13711;DHT22;6927;51.256;9.410;2023-03-23T01:15:37;11.80;1.00
13711;DHT22;6927;51.256;9.410;2023-03-23T01:18:03;11.90;1.00
13711;DHT22;6927;51.256;9.410;2023-03-23T01:20:29;11.90;99.90
13711;DHT22;6927;51.256;9.410;2023-03-23T01:22:57;11.90;1.00
13711;DHT22;6927;51.256;9.410;2023-03-23T01:25:35;11.90;99.90
13711;DHT22;6927;51.256;9.410;2023-03-23T01:28:01;11.90;99.90
13711;DHT22;6927;51.256;9.410;2023-03-23T01:30:27;11.80;99.90
13711;DHT22;6927;51.256;9.410;2023-03-23T01:32:54;11.80;1.00
13711;DHT22;6927;51.256;9.410;2023-03-23T01:35:20;11.80;1.00
13711;DHT22;6927;51.256;9.410;2023-03-23T01:37:45;11.80;1.00
13711;DHT22;6927;51.256;9.410;2023-03-23T01:40:13;11.90;11.60
13711;DHT22;6927;51.256;9.410;2023-03-23T01:42:40;11.90;78.00
13711;DHT22;6927;51.256;9.410;2023-03-23T01:45:32;11.90;99.90
13711;DHT22;6927;51.256;9.410;2023-03-23T01:48:24;11.90;99.90
13711;DHT22;6927;51.256;9.410;2023-03-23T01:50:56;12.00;1.00
13711;DHT22;6927;51.256;9.410;2023-03-23T01:53:26;11.90;1.00
13711;DHT22;6927;51.256;9.410;2023-03-23T01:55:54;11.90;99.90
13711;DHT22;6927;51.256;9.410;2023-03-23T01:58:24;11.90;99.90
13711;DHT22;6927;51.256;9.410;2023-03-23T02:00:54;11.90;99.90
13711;DHT22;6927;51.256;9.410;2023-03-23T02:03:21;11.80;99.90
13711;DHT22;6927;51.256;9.410;2023-03-23T02:05:49;11.80;1.00
13711;DHT22;6927;51.256;9.410;2023-03-23T02:08:17;11.80;1.00
13711;DHT22;6927;51.256;9.410;2023-03-23T02:10:43;11.80;1.00
13711;DHT22;6927;51.256;9.410;2023-03-23T02:13:11;11.70;1.00
13711;DHT22;6927;51.256;9.410;2023-03-23T02:15:59;11.70;99.90
13711;DHT22;6927;51.256;9.410;2023-03-23T02:18:44;11.70;99.90
13711;DHT22;6927;51.256;9.410;2023-03-23T02:21:40;11.70;99.90
13711;DHT22;6927;51.256;9.410;2023-03-23T02:35:12;11.70;1.00
13711;DHT22;6927;51.256;9.410;2023-03-23T02:40:36;11.70;1.00
13711;DHT22;6927;51.256;9.410;2023-03-23T02:43:07;11.70;99.90
13711;DHT22;6927;51.256;9.410;2023-03-23T02:45:36;11.60;1.00
13711;DHT22;6927;51.256;9.410;2023-03-23T02:48:04;11.70;99.90
13711;DHT22;6927;51.256;9.410;2023-03-23T02:50:31;11.60;99.90
13711;DHT22;6927;51.256;9.410;2023-03-23T02:52:58;11.60;99.90
13711;DHT22;6927;51.256;9.410;2023-03-23T02:55:26;11.60;1.00
13711;DHT22;6927;51.256;9.410;2023-03-23T02:57:54;11.50;99.90
13711;DHT22;6927;51.256;9.410;2023-03-23T03:00:20;11.40;99.90
13711;DHT22;6927;51.256;9.410;2023-03-23T03:02:49;11.30;99.90
13711;DHT22;6927;51.256;9.410;2023-03-23T03:13:41;11.00;1.00
13711;DHT22;6927;51.256;9.410;2023-03-23T03:16:27;10.90;88.50
13711;DHT22;6927;51.256;9.410;2023-03-23T03:18:59;10.80;99.90
13711;DHT22;6927;51.256;9.410;2023-03-23T03:21:28;10.70;99.90
13711;DHT22;6927;51.256;9.410;2023-03-23T03:23:57;10.60;99.90
13711;DHT22;6927;51.256;9.410;2023-03-23T03:26:27;10.50;99.90
13711;DHT22;6927;51.256;9.410;2023-03-23T03:28:54;10.40;99.90
13711;DHT22;6927;51.256;9.410;2023-03-23T03:31:40;10.40;99.90
13711;DHT22;6927;51.256;9.410;2023-03-23T03:34:14;10.30;99.90
13711;DHT22;6927;51.256;9.410;2023-03-23T03:36:43;10.30;99.90
13711;DHT22;6927;51.256;9.410;2023-03-23T03:39:12;10.20;99.90
13711;DHT22;6927;51.256;9.410;2023-03-23T03:41:38;10.20;99.90
13711;DHT22;6927;51.256;9.410;2023-03-23T03:44:05;10.10;99.90
13711;DHT22;6927;51.256;9.410;2023-03-23T03:46:32;10.10;99.90
13711;DHT22;6927;51.256;9.410;2023-03-23T03:48:59;10.10;99.90
13711;DHT22;6927;51.256;9.410;2023-03-23T03:51:27;10.00;99.90
13711;DHT22;6927;51.256;9.410;2023-03-23T03:53:53;10.00;99.90
13711;DHT22;6927;51.256;9.410;2023-03-23T03:56:18;10.00;99.90
13711;DHT22;6927;51.256;9.410;2023-03-23T03:58:45;10.00;99.90
13711;DHT22;6927;51.256;9.410;2023-03-23T04:01:14;10.00;99.90
13711;DHT22;6927;51.256;9.410;2023-03-23T04:03:40;9.90;99.90
13711;DHT22;6927;51.256;9.410;2023-03-23T04:06:07;9.90;99.90
13711;DHT22;6927;51.256;9.410;2023-03-23T04:08:34;9.90;99.90
13711;DHT22;6927;51.256;9.410;2023-03-23T04:11:01;9.90;99.90
13711;DHT22;6927;51.256;9.410;2023-03-23T04:13:26;9.80;99.90
13711;DHT22;6927;51.256;9.410;2023-03-23T04:15:52;9.80;99.90
13711;DHT22;6927;51.256;9.410;2023-03-23T04:18:18;9.80;99.90
13711;DHT22;6927;51.256;9.410;2023-03-23T04:20:45;9.70;99.90
13711;DHT22;6927;51.256;9.410;2023-03-23T04:23:13;9.70;99.90
13711;DHT22;6927;51.256;9.410;2023-03-23T04:25:51;9.70;99.90
13711;DHT22;6927;51.256;9.410;2023-03-23T04:28:34;9.60;99.90
13711;DHT22;6927;51.256;9.410;2023-03-23T04:31:52;9.60;99.90
13711;DHT22;6927;51.256;9.410;2023-03-23T04:35:09;9.60;99.90
13711;DHT22;6927;51.256;9.410;2023-03-23T04:37:37;9.50;99.90
13711;DHT22;6927;51.256;9.410;2023-03-23T04:40:05;9.40;99.90
13711;DHT22;6927;51.256;9.410;2023-03-23T04:42:56;9.40;99.90
13711;DHT22;6927;51.256;9.410;2023-03-23T04:45:35;9.40;99.90
13711;DHT22;6927;51.256;9.410;2023-03-23T04:48:41;9.40;99.90
13711;DHT22;6927;51.256;9.410;2023-03-23T04:51:37;9.30;99.90
13711;DHT22;6927;51.256;9.410;2023-03-23T04:57:48;9.30;99.90
13711;DHT22;6927;51.256;9.410;2023-03-23T05:01:01;9.30;99.90
13711;DHT22;6927;51.256;9.410;2023-03-23T05:07:54;9.30;99.90
13711;DHT22;6927;51.256;9.410;2023-03-23T05:11:26;9.30;99.90
13711;DHT22;6927;51.256;9.410;2023-03-23T05:14:26;9.30;99.90
13711;DHT22;6927;51.256;9.410;2023-03-23T05:17:39;9.30;99.90
13711;DHT22;6927;51.256;9.410;2023-03-23T05:21:24;9.30;99.90
13711;DHT22;6927;51.256;9.410;2023-03-23T05:24:10;9.20;99.90
13711;DHT22;6927;51.256;9.410;2023-03-23T05:26:36;9.20;99.90
13711;DHT22;6927;51.256;9.410;2023-03-23T05:29:23;9.20;99.90
13711;DHT22;6927;51.256;9.410;2023-03-23T05:32:28;9.20;99.90
13711;DHT22;6927;51.256;9.410;2023-03-23T05:35:58;9.20;99.90
13711;DHT22;6927;51.256;9.410;2023-03-23T05:38:59;9.20;99.90
13711;DHT22;6927;51.256;9.410;2023-03-23T05:41:41;9.30;99.90
13711;DHT22;6927;51.256;9.410;2023-03-23T05:44:13;9.30;99.90
13711;DHT22;6927;51.256;9.410;2023-03-23T05:46:41;9.30;99.90
13711;DHT22;6927;51.256;9.410;2023-03-23T05:49:07;9.30;99.90
13711;DHT22;6927;51.256;9.410;2023-03-23T05:51:50;9.30;99.90
13711;DHT22;6927;51.256;9.410;2023-03-23T05:54:16;9.40;99.90
13711;DHT22;6927;51.256;9.410;2023-03-23T05:56:43;9.40;99.90
13711;DHT22;6927;51.256;9.410;2023-03-23T05:59:09;9.40;99.90
13711;DHT22;6927;51.256;9.410;2023-03-23T06:01:36;9.40;99.90
13711;DHT22;6927;51.256;9.410;2023-03-23T06:04:23;9.50;99.90
13711;DHT22;6927;51.256;9.410;2023-03-23T06:06:53;9.50;99.90
13711;DHT22;6927;51.256;9.410;2023-03-23T06:09:24;9.50;99.90
13711;DHT22;6927;51.256;9.410;2023-03-23T06:12:02;9.50;99.90
13711;DHT22;6927;51.256;9.410;2023-03-23T06:14:29;9.50;99.90
13711;DHT22;6927;51.256;9.410;2023-03-23T06:16:55;9.50;99.90
13711;DHT22;6927;51.256;9.410;2023-03-23T06:19:21;9.50;99.90
13711;DHT22;6927;51.256;9.410;2023-03-23T06:21:48;9.60;99.90
13711;DHT22;6927;51.256;9.410;2023-03-23T06:24:14;9.60;99.90
13711;DHT22;6927;51.256;9.410;2023-03-23T06:26:40;9.60;99.90
13711;DHT22;6927;51.256;9.410;2023-03-23T06:29:09;9.60;99.90
13711;DHT22;6927;51.256;9.410;2023-03-23T06:31:43;9.60;99.90
13711;DHT22;6927;51.256;9.410;2023-03-23T06:34:10;9.60;99.90
13711;DHT22;6927;51.256;9.410;2023-03-23T06:36:37;9.60;99.90
13711;DHT22;6927;51.256;9.410;2023-03-23T06:39:04;9.70;99.90
13711;DHT22;6927;51.256;9.410;2023-03-23T06:41:33;9.70;99.90
13711;DHT22;6927;51.256;9.410;2023-03-23T06:44:00;9.90;99.90
13711;DHT22;6927;51.256;9.410;2023-03-23T06:46:26;10.00;99.90
13711;DHT22;6927;51.256;9.410;2023-03-23T06:48:52;10.10;99.90
13711;DHT22;6927;51.256;9.410;2023-03-23T06:51:18;10.20;99.90
13711;DHT22;6927;51.256;9.410;2023-03-23T06:53:44;10.30;99.90
13711;DHT22;6927;51.256;9.410;2023-03-23T06:56:11;10.30;99.90
13711;DHT22;6927;51.256;9.410;2023-03-23T06:58:39;10.40;99.90
13711;DHT22;6927;51.256;9.410;2023-03-23T07:01:10;10.40;99.90
13711;DHT22;6927;51.256;9.410;2023-03-23T07:03:37;10.50;99.90
13711;DHT22;6927;51.256;9.410;2023-03-23T07:06:05;10.50;99.90
13711;DHT22;6927;51.256;9.410;2023-03-23T07:08:35;10.60;99.90
13711;DHT22;6927;51.256;9.410;2023-03-23T07:11:08;10.60;99.90
13711;DHT22;6927;51.256;9.410;2023-03-23T07:13:37;10.60;99.90
13711;DHT22;6927;51.256;9.410;2023-03-23T07:16:05;10.60;99.90
13711;DHT22;6927;51.256;9.410;2023-03-23T07:18:32;10.60;99.90
13711;DHT22;6927;51.256;9.410;2023-03-23T07:20:59;10.60;99.90
13711;DHT22;6927;51.256;9.410;2023-03-23T07:23:26;10.60;99.90
13711;DHT22;6927;51.256;9.410;2023-03-23T07:25:51;10.60;99.90
13711;DHT22;6927;51.256;9.410;2023-03-23T07:28:19;10.60;99.90
13711;DHT22;6927;51.256;9.410;2023-03-23T07:30:45;10.60;99.90
13711;DHT22;6927;51.256;9.410;2023-03-23T07:33:11;10.60;99.90
13711;DHT22;6927;51.256;9.410;2023-03-23T07:35:38;10.60;99.90
13711;DHT22;6927;51.256;9.410;2023-03-23T07:38:06;10.60;99.90
13711;DHT22;6927;51.256;9.410;2023-03-23T07:40:33;10.60;99.90
13711;DHT22;6927;51.256;9.410;2023-03-23T07:43:01;10.60;99.90
13711;DHT22;6927;51.256;9.410;2023-03-23T07:45:28;10.70;99.90
13711;DHT22;6927;51.256;9.410;2023-03-23T07:47:54;10.80;99.90
13711;DHT22;6927;51.256;9.410;2023-03-23T07:50:21;10.90;99.90
13711;DHT22;6927;51.256;9.410;2023-03-23T07:52:49;11.00;99.90
13711;DHT22;6927;51.256;9.410;2023-03-23T07:55:14;11.00;99.90
13711;DHT22;6927;51.256;9.410;2023-03-23T07:57:44;11.10;99.90
13711;DHT22;6927;51.256;9.410;2023-03-23T08:00:10;11.10;99.90
13711;DHT22;6927;51.256;9.410;2023-03-23T08:02:39;11.20;99.90
13711;DHT22;6927;51.256;9.410;2023-03-23T08:05:05;11.30;99.90
13711;DHT22;6927;51.256;9.410;2023-03-23T08:07:30;11.30;99.90
13711;DHT22;6927;51.256;9.410;2023-03-23T08:09:56;11.30;99.90
13711;DHT22;6927;51.256;9.410;2023-03-23T08:12:21;11.30;99.90
13711;DHT22;6927;51.256;9.410;2023-03-23T08:14:47;11.30;99.90
13711;DHT22;6927;51.256;9.410;2023-03-23T08:17:13;11.30;99.90
13711;DHT22;6927;51.256;9.410;2023-03-23T08:19:39;11.30;99.90
13711;DHT22;6927;51.256;9.410;2023-03-23T08:22:05;11.40;99.90
13711;DHT22;6927;51.256;9.410;2023-03-23T08:24:32;11.40;99.90
13711;DHT22;6927;51.256;9.410;2023-03-23T08:26:58;11.50;99.90
13711;DHT22;6927;51.256;9.410;2023-03-23T08:29:24;11.60;99.90
13711;DHT22;6927;51.256;9.410;2023-03-23T08:31:50;11.70;99.90
13711;DHT22;6927;51.256;9.410;2023-03-23T08:34:16;11.80;99.90
13711;DHT22;6927;51.256;9.410;2023-03-23T08:36:41;11.80;99.90
13711;DHT22;6927;51.256;9.410;2023-03-23T08:39:10;11.90;99.90
13711;DHT22;6927;51.256;9.410;2023-03-23T08:41:35;11.90;99.90
13711;DHT22;6927;51.256;9.410;2023-03-23T08:44:01;11.90;99.90
13711;DHT22;6927;51.256;9.410;2023-03-23T08:46:29;11.90;99.90
13711;DHT22;6927;51.256;9.410;2023-03-23T08:48:55;11.80;99.90
13711;DHT22;6927;51.256;9.410;2023-03-23T08:51:21;11.90;99.90
13711;DHT22;6927;51.256;9.410;2023-03-23T08:53:47;11.90;99.90
13711;DHT22;6927;51.256;9.410;2023-03-23T08:56:12;12.00;99.90
13711;DHT22;6927;51.256;9.410;2023-03-23T08:58:39;12.00;99.90
13711;DHT22;6927;51.256;9.410;2023-03-23T09:01:06;12.00;99.90
13711;DHT22;6927;51.256;9.410;2023-03-23T09:03:33;12.20;99.90
13711;DHT22;6927;51.256;9.410;2023-03-23T09:06:02;12.30;99.90
13711;DHT22;6927;51.256;9.410;2023-03-23T09:08:28;12.40;99.90
13711;DHT22;6927;51.256;9.410;2023-03-23T09:11:06;12.40;99.90
13711;DHT22;6927;51.256;9.410;2023-03-23T09:13:33;12.50;99.90
13711;DHT22;6927;51.256;9.410;2023-03-23T09:16:02;12.60;99.90
13711;DHT22;6927;51.256;9.410;2023-03-23T09:18:28;12.70;99.90
13711;DHT22;6927;51.256;9.410;2023-03-23T09:20:54;12.70;99.90
13711;DHT22;6927;51.256;9.410;2023-03-23T09:23:20;12.80;99.90
13711;DHT22;6927;51.256;9.410;2023-03-23T09:25:47;13.00;85.80
13711;DHT22;6927;51.256;9.410;2023-03-23T09:28:13;13.20;1.00
13711;DHT22;6927;51.256;9.410;2023-03-23T09:30:41;13.40;1.00
13711;DHT22;6927;51.256;9.410;2023-03-23T09:33:08;13.50;99.90
13711;DHT22;6927;51.256;9.410;2023-03-23T09:35:35;13.70;99.90
13711;DHT22;6927;51.256;9.410;2023-03-23T09:38:02;13.90;99.90
13711;DHT22;6927;51.256;9.410;2023-03-23T09:40:44;13.90;1.00
13711;DHT22;6927;51.256;9.410;2023-03-23T09:43:47;13.90;1.00
13711;DHT22;6927;51.256;9.410;2023-03-23T09:49:17;13.90;1.00
13711;DHT22;6927;51.256;9.410;2023-03-23T09:51:56;14.00;1.00
13711;DHT22;6927;51.256;9.410;2023-03-23T09:54:56;14.20;99.90
13711;DHT22;6927;51.256;9.410;2023-03-23T10:03:18;14.00;1.00
13711;DHT22;6927;51.256;9.410;2023-03-23T10:05:54;14.00;1.00
13711;DHT22;6927;51.256;9.410;2023-03-23T10:08:27;14.00;1.00
13711;DHT22;6927;51.256;9.410;2023-03-23T10:11:14;14.10;1.00
13711;DHT22;6927;51.256;9.410;2023-03-23T10:14:02;14.10;99.90
13711;DHT22;6927;51.256;9.410;2023-03-23T10:16:37;14.00;99.90
13711;DHT22;6927;51.256;9.410;2023-03-23T10:19:20;14.10;1.00
13711;DHT22;6927;51.256;9.410;2023-03-23T10:21:51;14.10;1.00
13711;DHT22;6927;51.256;9.410;2023-03-23T10:24:23;14.20;1.00
13711;DHT22;6927;51.256;9.410;2023-03-23T10:29:30;14.10;99.90
13711;DHT22;6927;51.256;9.410;2023-03-23T10:32:02;14.20;99.90
13711;DHT22;6927;51.256;9.410;2023-03-23T10:34:35;14.20;99.90
13711;DHT22;6927;51.256;9.410;2023-03-23T10:37:23;14.10;99.90
13711;DHT22;6927;51.256;9.410;2023-03-23T10:39:59;14.00;1.00
13711;DHT22;6927;51.256;9.410;2023-03-23T10:42:31;13.90;99.90
13711;DHT22;6927;51.256;9.410;2023-03-23T10:44:59;13.90;20.00
13711;DHT22;6927;51.256;9.410;2023-03-23T10:47:25;14.00;10.00
13711;DHT22;6927;51.256;9.410;2023-03-23T10:50:00;13.90;1.00
13711;DHT22;6927;51.256;9.410;2023-03-23T10:52:39;13.90;1.00
13711;DHT22;6927;51.256;9.410;2023-03-23T10:55:17;13.80;1.00
13711;DHT22;6927;51.256;9.410;2023-03-23T10:57:45;14.00;1.00
13711;DHT22;6927;51.256;9.410;2023-03-23T11:03:05;14.10;9.70
13711;DHT22;6927;51.256;9.410;2023-03-23T11:05:43;14.10;99.90
13711;DHT22;6927;51.256;9.410;2023-03-23T11:08:20;14.20;1.00
13711;DHT22;6927;51.256;9.410;2023-03-23T11:11:08;14.50;1.00
13711;DHT22;6927;51.256;9.410;2023-03-23T11:13:42;14.60;99.90
13711;DHT22;6927;51.256;9.410;2023-03-23T11:16:10;14.70;99.90
13711;DHT22;6927;51.256;9.410;2023-03-23T11:18:37;14.70;99.90
13711;DHT22;6927;51.256;9.410;2023-03-23T11:21:05;14.70;99.90
13711;DHT22;6927;51.256;9.410;2023-03-23T11:23:38;14.80;99.90
13711;DHT22;6927;51.256;9.410;2023-03-23T11:26:16;15.00;99.90
13711;DHT22;6927;51.256;9.410;2023-03-23T11:29:08;15.00;99.90
13711;DHT22;6927;51.256;9.410;2023-03-23T11:31:38;14.90;99.90
13711;DHT22;6927;51.256;9.410;2023-03-23T11:34:13;15.10;99.90
13711;DHT22;6927;51.256;9.410;2023-03-23T11:36:49;15.10;99.90
13711;DHT22;6927;51.256;9.410;2023-03-23T11:41:49;14.70;1.00
13711;DHT22;6927;51.256;9.410;2023-03-23T11:44:15;14.50;1.00
13711;DHT22;6927;51.256;9.410;2023-03-23T11:47:03;14.30;99.90
13711;DHT22;6927;51.256;9.410;2023-03-23T11:49:37;14.40;99.90
13711;DHT22;6927;51.256;9.410;2023-03-23T11:52:23;14.60;63.30
13711;DHT22;6927;51.256;9.410;2023-03-23T11:55:08;14.60;99.90
13711;DHT22;6927;51.256;9.410;2023-03-23T11:57:35;14.70;99.90
13711;DHT22;6927;51.256;9.410;2023-03-23T12:00:01;14.60;99.90
13711;DHT22;6927;51.256;9.410;2023-03-23T12:05:49;14.70;99.90
13711;DHT22;6927;51.256;9.410;2023-03-23T12:11:19;14.20;99.90
13711;DHT22;6927;51.256;9.410;2023-03-23T12:30:14;13.70;1.00
13711;DHT22;6927;51.256;9.410;2023-03-23T12:35:48;13.70;1.00
13711;DHT22;6927;51.256;9.410;2023-03-23T12:44:06;14.40;99.90
13711;DHT22;6927;51.256;9.410;2023-03-23T12:49:12;14.50;99.90
13711;DHT22;6927;51.256;9.410;2023-03-23T12:51:49;14.40;99.90
13711;DHT22;6927;51.256;9.410;2023-03-23T12:54:42;14.40;99.90
13711;DHT22;6927;51.256;9.410;2023-03-23T12:57:38;14.50;1.00
13711;DHT22;6927;51.256;9.410;2023-03-23T13:05:50;14.60;99.90
13711;DHT22;6927;51.256;9.410;2023-03-23T13:08:58;14.60;99.90
13711;DHT22;6927;51.256;9.410;2023-03-23T13:11:33;15.10;99.90
13711;DHT22;6927;51.256;9.410;2023-03-23T13:14:31;14.90;99.90
13711;DHT22;6927;51.256;9.410;2023-03-23T13:26:20;15.40;99.90
13711;DHT22;6927;51.256;9.410;2023-03-23T13:31:29;15.30;99.90
13711;DHT22;6927;51.256;9.410;2023-03-23T13:34:15;15.30;99.90
13711;DHT22;6927;51.256;9.410;2023-03-23T13:36:44;15.30;99.90
13711;DHT22;6927;51.256;9.410;2023-03-23T13:39:28;15.50;99.90
13711;DHT22;6927;51.256;9.410;2023-03-23T13:45:05;15.50;99.90
13711;DHT22;6927;51.256;9.410;2023-03-23T13:47:39;15.60;99.90
13711;DHT22;6927;51.256;9.410;2023-03-23T14:03:19;14.90;99.90
13711;DHT22;6927;51.256;9.410;2023-03-23T14:05:59;14.80;99.90
13711;DHT22;6927;51.256;9.410;2023-03-23T14:11:01;14.60;99.90
13711;DHT22;6927;51.256;9.410;2023-03-23T14:13:37;14.50;99.90
13711;DHT22;6927;51.256;9.410;2023-03-23T14:16:30;14.40;99.90
13711;DHT22;6927;51.256;9.410;2023-03-23T14:18:57;14.40;99.90
13711;DHT22;6927;51.256;9.410;2023-03-23T14:21:35;14.40;99.90
13711;DHT22;6927;51.256;9.410;2023-03-23T14:24:17;14.40;99.90
13711;DHT22;6927;51.256;9.410;2023-03-23T14:26:44;14.40;99.90
13711;DHT22;6927;51.256;9.410;2023-03-23T14:29:12;14.40;1.00
13711;DHT22;6927;51.256;9.410;2023-03-23T14:31:38;14.50;99.90
13711;DHT22;6927;51.256;9.410;2023-03-23T14:34:13;14.50;99.90
13711;DHT22;6927;51.256;9.410;2023-03-23T14:36:39;14.60;99.90
13711;DHT22;6927;51.256;9.410;2023-03-23T14:41:38;14.60;99.90
13711;DHT22;6927;51.256;9.410;2023-03-23T14:44:07;14.60;99.90
13711;DHT22;6927;51.256;9.410;2023-03-23T14:46:33;14.60;99.90
13711;DHT22;6927;51.256;9.410;2023-03-23T14:49:01;14.50;1.00
13711;DHT22;6927;51.256;9.410;2023-03-23T14:51:27;14.50;99.90
13711;DHT22;6927;51.256;9.410;2023-03-23T14:53:53;14.40;99.90
13711;DHT22;6927;51.256;9.410;2023-03-23T14:56:23;14.30;99.90
13711;DHT22;6927;51.256;9.410;2023-03-23T14:58:53;14.40;99.90
13711;DHT22;6927;51.256;9.410;2023-03-23T15:01:23;14.50;99.90
13711;DHT22;6927;51.256;9.410;2023-03-23T15:04:10;14.60;99.90
13711;DHT22;6927;51.256;9.410;2023-03-23T15:06:38;14.60;99.90
13711;DHT22;6927;51.256;9.410;2023-03-23T15:09:13;14.70;99.90
13711;DHT22;6927;51.256;9.410;2023-03-23T15:11:40;14.70;99.90
13711;DHT22;6927;51.256;9.410;2023-03-23T15:14:17;14.70;99.90
13711;DHT22;6927;51.256;9.410;2023-03-23T15:16:51;14.70;1.00
13711;DHT22;6927;51.256;9.410;2023-03-23T15:19:33;14.70;99.90
13711;DHT22;6927;51.256;9.410;2023-03-23T15:24:39;14.60;99.90
13711;DHT22;6927;51.256;9.410;2023-03-23T15:27:16;14.60;99.90
13711;DHT22;6927;51.256;9.410;2023-03-23T15:29:56;14.50;99.90
13711;DHT22;6927;51.256;9.410;2023-03-23T15:32:25;14.60;99.90
13711;DHT22;6927;51.256;9.410;2023-03-23T15:34:52;14.60;99.90
13711;DHT22;6927;51.256;9.410;2023-03-23T15:37:29;14.60;99.90
13711;DHT22;6927;51.256;9.410;2023-03-23T15:39:57;14.50;99.90
13711;DHT22;6927;51.256;9.410;2023-03-23T15:42:34;14.50;99.90
13711;DHT22;6927;51.256;9.410;2023-03-23T15:47:44;14.40;99.90
13711;DHT22;6927;51.256;9.410;2023-03-23T15:50:32;14.40;99.90
13711;DHT22;6927;51.256;9.410;2023-03-23T15:52:58;14.50;99.90
13711;DHT22;6927;51.256;9.410;2023-03-23T15:55:29;14.50;99.90
13711;DHT22;6927;51.256;9.410;2023-03-23T15:58:00;14.50;99.90
13711;DHT22;6927;51.256;9.410;2023-03-23T16:00:28;14.40;99.90
13711;DHT22;6927;51.256;9.410;2023-03-23T16:02:59;14.40;99.90
13711;DHT22;6927;51.256;9.410;2023-03-23T16:05:26;14.40;99.90
13711;DHT22;6927;51.256;9.410;2023-03-23T16:07:52;14.40;99.90
13711;DHT22;6927;51.256;9.410;2023-03-23T16:10:20;14.50;99.90
13711;DHT22;6927;51.256;9.410;2023-03-23T16:12:46;14.40;1.00
13711;DHT22;6927;51.256;9.410;2023-03-23T16:15:13;14.40;99.90
13711;DHT22;6927;51.256;9.410;2023-03-23T16:17:40;14.40;99.90
13711;DHT22;6927;51.256;9.410;2023-03-23T16:20:14;14.40;99.90
13711;DHT22;6927;51.256;9.410;2023-03-23T16:22:40;14.40;1.00
13711;DHT22;6927;51.256;9.410;2023-03-23T16:25:07;14.30;1.00
13711;DHT22;6927;51.256;9.410;2023-03-23T16:27:33;14.40;99.90
13711;DHT22;6927;51.256;9.410;2023-03-23T16:29:58;14.40;1.00
13711;DHT22;6927;51.256;9.410;2023-03-23T16:32:27;14.30;1.00
13711;DHT22;6927;51.256;9.410;2023-03-23T16:34:52;14.30;1.00
13711;DHT22;6927;51.256;9.410;2023-03-23T16:37:18;14.20;1.00
13711;DHT22;6927;51.256;9.410;2023-03-23T16:39:43;14.20;1.00
13711;DHT22;6927;51.256;9.410;2023-03-23T16:42:09;14.20;5.90
13711;DHT22;6927;51.256;9.410;2023-03-23T16:44:35;14.10;1.00
13711;DHT22;6927;51.256;9.410;2023-03-23T16:47:00;14.20;1.00
13711;DHT22;6927;51.256;9.410;2023-03-23T16:49:26;14.20;1.00
13711;DHT22;6927;51.256;9.410;2023-03-23T16:51:51;14.30;18.50
13711;DHT22;6927;51.256;9.410;2023-03-23T16:54:17;14.30;99.90
13711;DHT22;6927;51.256;9.410;2023-03-23T16:56:42;14.20;1.00
13711;DHT22;6927;51.256;9.410;2023-03-23T16:59:12;14.10;60.50
13711;DHT22;6927;51.256;9.410;2023-03-23T17:01:38;14.10;99.90
13711;DHT22;6927;51.256;9.410;2023-03-23T17:04:05;13.90;1.00
13711;DHT22;6927;51.256;9.410;2023-03-23T17:06:31;13.80;99.90
13711;DHT22;6927;51.256;9.410;2023-03-23T17:08:56;13.60;1.00
13711;DHT22;6927;51.256;9.410;2023-03-23T17:11:22;13.50;57.60
13711;DHT22;6927;51.256;9.410;2023-03-23T17:13:47;13.50;1.00
13711;DHT22;6927;51.256;9.410;2023-03-23T17:16:13;13.40;1.00
13711;DHT22;6927;51.256;9.410;2023-03-23T17:18:38;13.30;1.00
13711;DHT22;6927;51.256;9.410;2023-03-23T17:21:04;13.20;1.00
13711;DHT22;6927;51.256;9.410;2023-03-23T17:23:31;13.20;1.00
13711;DHT22;6927;51.256;9.410;2023-03-23T17:25:56;13.10;99.90
13711;DHT22;6927;51.256;9.410;2023-03-23T17:28:22;13.10;99.90
13711;DHT22;6927;51.256;9.410;2023-03-23T17:30:47;13.10;99.90
13711;DHT22;6927;51.256;9.410;2023-03-23T17:33:13;13.00;99.90
13711;DHT22;6927;51.256;9.410;2023-03-23T17:35:39;13.00;99.90
13711;DHT22;6927;51.256;9.410;2023-03-23T17:38:05;13.00;1.00
13711;DHT22;6927;51.256;9.410;2023-03-23T17:40:31;12.90;99.90
13711;DHT22;6927;51.256;9.410;2023-03-23T17:42:56;12.90;1.00
13711;DHT22;6927;51.256;9.410;2023-03-23T17:45:22;12.80;99.90
13711;DHT22;6927;51.256;9.410;2023-03-23T17:47:48;12.80;1.00
13711;DHT22;6927;51.256;9.410;2023-03-23T17:50:13;12.80;99.90
13711;DHT22;6927;51.256;9.410;2023-03-23T17:52:40;12.70;1.00
13711;DHT22;6927;51.256;9.410;2023-03-23T17:55:08;12.70;99.90
13711;DHT22;6927;51.256;9.410;2023-03-23T17:57:37;12.70;12.50
13711;DHT22;6927;51.256;9.410;2023-03-23T18:00:04;12.60;1.00
13711;DHT22;6927;51.256;9.410;2023-03-23T18:02:33;12.60;99.90
13711;DHT22;6927;51.256;9.410;2023-03-23T18:04:59;12.50;99.90
13711;DHT22;6927;51.256;9.410;2023-03-23T18:07:25;12.50;1.00
13711;DHT22;6927;51.256;9.410;2023-03-23T18:09:57;12.50;1.00
13711;DHT22;6927;51.256;9.410;2023-03-23T18:12:27;12.50;1.00
13711;DHT22;6927;51.256;9.410;2023-03-23T18:15:02;12.50;99.90
13711;DHT22;6927;51.256;9.410;2023-03-23T18:17:28;12.40;1.00
13711;DHT22;6927;51.256;9.410;2023-03-23T18:19:53;12.40;99.90
13711;DHT22;6927;51.256;9.410;2023-03-23T18:22:19;12.30;99.90
13711;DHT22;6927;51.256;9.410;2023-03-23T18:24:48;12.30;99.90
13711;DHT22;6927;51.256;9.410;2023-03-23T18:27:14;12.30;99.90